createdAt,value
2022-10-14T00:02:22.830Z,7.40
2022-10-14T00:04:49.263Z,8.38
2022-10-14T00:07:15.869Z,8.77
2022-10-14T00:09:42.762Z,8.45
2022-10-14T00:12:09.454Z,8.02
2022-10-14T00:14:35.899Z,6.90
2022-10-14T00:17:02.653Z,6.80
2022-10-14T00:19:29.084Z,7.07
2022-10-14T00:21:55.644Z,7.82
2022-10-14T00:24:22.613Z,7.38
2022-10-14T00:26:49.103Z,7.22
2022-10-14T00:29:18.814Z,7.53
2022-10-14T00:31:47.249Z,7.38
2022-10-14T00:34:15.860Z,7.18
2022-10-14T00:36:43.475Z,7.43
2022-10-14T00:39:10.926Z,7.50
2022-10-14T00:41:38.271Z,8.07
2022-10-14T00:44:15.704Z,7.60
2022-10-14T00:46:47.090Z,8.07
2022-10-14T00:49:15.511Z,7.72
2022-10-14T00:51:46.922Z,8.45
2022-10-14T00:54:16.714Z,7.53
2022-10-14T00:56:44.906Z,7.47
2022-10-14T00:59:11.987Z,7.50
2022-10-14T01:01:38.407Z,7.75
2022-10-14T01:04:04.984Z,7.93
2022-10-14T01:06:47.595Z,8.07
2022-10-14T01:10:04.055Z,8.60
2022-10-14T01:12:36.241Z,9.30
2022-10-14T01:15:23.040Z,8.48
2022-10-14T01:18:31.047Z,7.80
2022-10-14T01:21:01.585Z,7.65
2022-10-14T01:23:37.160Z,9.23
2022-10-14T01:26:15.800Z,8.18
2022-10-14T01:29:13.063Z,8.52
2022-10-14T01:31:47.781Z,8.27
2022-10-14T01:34:22.473Z,8.82
2022-10-14T01:36:55.856Z,8.93
2022-10-14T01:39:29.712Z,9.07
2022-10-14T01:42:02.323Z,8.68
2022-10-14T01:44:31.031Z,8.40
2022-10-14T01:46:59.272Z,8.88
2022-10-14T01:49:35.641Z,8.80
2022-10-14T01:52:16.427Z,9.35
2022-10-14T01:54:46.881Z,8.63
2022-10-14T01:57:19.451Z,9.15
2022-10-14T01:59:47.615Z,9.00
2022-10-14T02:02:14.365Z,9.13
2022-10-14T02:04:41.054Z,8.88
2022-10-14T02:07:16.805Z,9.15
2022-10-14T02:09:56.594Z,8.73
2022-10-14T02:12:37.932Z,9.15
2022-10-14T02:15:21.853Z,8.95
2022-10-14T02:17:57.345Z,8.25
2022-10-14T02:20:53.380Z,8.57
2022-10-14T02:25:50.137Z,7.57
2022-10-14T02:28:21.186Z,8.27
2022-10-14T02:31:04.675Z,9.45
2022-10-14T02:33:36.405Z,8.23
2022-10-14T02:36:05.686Z,8.48
2022-10-14T02:38:33.324Z,8.52
2022-10-14T02:41:04.558Z,8.48
2022-10-14T02:43:31.266Z,8.88
2022-10-14T02:46:00.505Z,7.97
2022-10-14T02:48:27.070Z,8.23
2022-10-14T02:50:53.499Z,9.05
2022-10-14T02:53:20.142Z,8.05
2022-10-14T02:55:46.806Z,8.98
2022-10-14T02:58:13.321Z,8.40
2022-10-14T03:00:39.745Z,8.10
2022-10-14T03:03:06.881Z,8.98
2022-10-14T03:05:33.498Z,8.30
2022-10-14T03:08:00.244Z,8.82
2022-10-14T03:10:26.856Z,8.98
2022-10-14T03:12:53.510Z,8.57
2022-10-14T03:15:19.893Z,8.70
2022-10-14T03:17:46.392Z,9.15
2022-10-14T03:20:12.840Z,9.30
2022-10-14T03:22:39.343Z,8.60
2022-10-14T03:25:06.289Z,8.57
2022-10-14T03:27:32.888Z,8.73
2022-10-14T03:29:59.430Z,8.77
2022-10-14T03:32:26.133Z,8.43
2022-10-14T03:34:52.531Z,8.55
2022-10-14T03:37:19.266Z,8.90
2022-10-14T03:39:45.743Z,8.80
2022-10-14T03:42:12.589Z,8.30
2022-10-14T03:44:38.958Z,7.88
2022-10-14T03:47:05.531Z,8.20
2022-10-14T03:49:31.964Z,8.23
2022-10-14T03:51:58.381Z,8.82
2022-10-14T03:54:24.925Z,8.85
2022-10-14T03:56:51.315Z,8.23
2022-10-14T03:59:17.860Z,7.82
2022-10-14T04:01:44.334Z,8.80
2022-10-14T04:04:11.291Z,8.77
2022-10-14T04:06:37.741Z,8.75
2022-10-14T04:09:05.254Z,8.77
2022-10-14T04:11:31.677Z,8.50
2022-10-14T04:13:59.295Z,9.13
2022-10-14T04:16:27.014Z,8.70
2022-10-14T04:18:54.092Z,7.75
2022-10-14T04:21:20.888Z,8.60
2022-10-14T04:23:47.585Z,8.48
2022-10-14T04:26:14.199Z,8.48
2022-10-14T04:28:40.787Z,7.57
2022-10-14T04:31:07.737Z,8.52
2022-10-14T04:33:35.020Z,8.77
2022-10-14T04:36:04.216Z,8.60
2022-10-14T04:38:30.828Z,8.95
2022-10-14T04:40:58.336Z,7.63
2022-10-14T04:43:25.081Z,8.20
2022-10-14T04:45:51.594Z,7.18
2022-10-14T04:48:18.805Z,7.78
2022-10-14T04:50:45.368Z,7.28
2022-10-14T04:53:13.871Z,7.65
2022-10-14T04:55:41.997Z,7.85
2022-10-14T04:58:08.437Z,8.07
2022-10-14T05:00:34.984Z,7.60
2022-10-14T05:03:01.388Z,7.82
2022-10-14T05:05:28.109Z,7.35
2022-10-14T05:07:54.564Z,8.20
2022-10-14T05:10:21.718Z,7.10
2022-10-14T05:12:48.722Z,7.00
2022-10-14T05:15:15.747Z,7.60
2022-10-14T05:17:44.725Z,6.38
2022-10-14T05:20:12.552Z,7.00
2022-10-14T05:22:39.794Z,6.90
2022-10-14T05:25:06.873Z,7.22
2022-10-14T05:27:33.298Z,6.90
2022-10-14T05:30:00.907Z,7.30
2022-10-14T05:32:27.355Z,7.10
2022-10-14T05:34:54.109Z,7.00
2022-10-14T05:37:20.541Z,7.05
2022-10-14T05:39:47.051Z,7.03
2022-10-14T05:42:13.498Z,6.35
2022-10-14T05:44:40.047Z,6.72
2022-10-14T05:47:06.494Z,7.18
2022-10-14T05:49:33.006Z,7.25
2022-10-14T05:51:59.542Z,7.28
2022-10-14T05:54:25.934Z,7.95
2022-10-14T05:56:52.600Z,7.07
2022-10-14T05:59:19.467Z,6.78
2022-10-14T06:01:46.013Z,6.88
2022-10-14T06:04:20.428Z,6.88
2022-10-14T06:06:47.116Z,7.25
2022-10-14T06:09:13.828Z,7.40
2022-10-14T06:11:40.530Z,7.22
2022-10-14T06:14:07.235Z,7.38
2022-10-14T06:16:33.977Z,7.07
2022-10-14T06:19:00.592Z,6.90
2022-10-14T06:21:27.237Z,6.78
2022-10-14T06:23:53.865Z,6.78
2022-10-14T06:26:20.240Z,6.30
2022-10-14T06:28:46.877Z,6.85
2022-10-14T06:31:13.398Z,6.20
2022-10-14T06:33:40.118Z,6.38
2022-10-14T06:36:07.132Z,6.35
2022-10-14T06:38:33.730Z,6.32
2022-10-14T06:41:00.282Z,6.47
2022-10-14T06:43:26.702Z,6.53
2022-10-14T06:45:56.996Z,6.25
2022-10-14T06:48:23.394Z,5.70
2022-10-14T06:50:52.784Z,5.95
2022-10-14T06:53:19.381Z,5.68
2022-10-14T06:55:46.336Z,5.85
2022-10-14T06:58:12.713Z,5.90
2022-10-14T07:00:39.220Z,5.80
2022-10-14T07:03:06.124Z,5.32
2022-10-14T07:05:32.685Z,6.28
2022-10-14T07:10:25.692Z,5.93
2022-10-14T07:12:56.200Z,5.38
2022-10-14T07:15:23.332Z,5.85
2022-10-14T07:17:49.757Z,5.47
2022-10-14T07:20:16.666Z,5.75
2022-10-14T07:22:43.175Z,5.82
2022-10-14T07:25:10.375Z,5.07
2022-10-14T07:27:37.061Z,5.05
2022-10-14T07:30:05.719Z,4.90
2022-10-14T07:32:36.760Z,5.20
2022-10-14T07:35:03.986Z,5.43
2022-10-14T07:37:30.594Z,4.57
2022-10-14T07:39:56.977Z,5.32
2022-10-14T07:42:23.513Z,5.00
2022-10-14T07:44:50.318Z,4.90
2022-10-14T07:47:17.002Z,6.03
2022-10-14T07:49:43.460Z,5.68
2022-10-14T07:52:09.896Z,6.60
2022-10-14T07:54:36.489Z,5.85
2022-10-14T07:57:02.982Z,6.43
2022-10-14T07:59:29.865Z,5.60
2022-10-14T08:01:56.726Z,5.18
2022-10-14T08:04:24.329Z,5.35
2022-10-14T08:06:52.079Z,5.97
2022-10-14T08:09:19.785Z,5.70
2022-10-14T08:11:47.660Z,5.13
2022-10-14T08:14:14.215Z,6.15
2022-10-14T08:16:40.905Z,5.47
2022-10-14T08:19:13.848Z,6.05
2022-10-14T08:21:42.534Z,6.53
2022-10-14T08:24:09.659Z,5.63
2022-10-14T08:26:38.861Z,6.30
2022-10-14T08:29:15.404Z,6.45
2022-10-14T08:31:41.784Z,6.35
2022-10-14T08:34:08.411Z,7.75
2022-10-14T08:36:34.857Z,6.72
2022-10-14T08:39:01.313Z,7.43
2022-10-14T08:42:01.385Z,7.10
2022-10-14T08:44:36.873Z,7.13
2022-10-14T08:47:05.073Z,7.00
2022-10-14T08:49:59.922Z,6.43
2022-10-14T08:52:44.920Z,9.65
2022-10-14T08:55:29.205Z,8.52
2022-10-14T08:58:16.073Z,7.70
2022-10-14T09:00:44.994Z,7.80
2022-10-14T09:03:33.246Z,7.75
2022-10-14T09:06:03.488Z,7.80
2022-10-14T09:08:43.306Z,7.88
2022-10-14T09:11:34.387Z,8.15
2022-10-14T09:14:02.496Z,7.88
2022-10-14T09:16:33.045Z,8.45
2022-10-14T09:19:02.414Z,8.52
2022-10-14T09:21:47.909Z,8.05
2022-10-14T09:24:23.508Z,7.50
2022-10-14T09:27:18.019Z,7.57
2022-10-14T09:29:50.161Z,8.80
2022-10-14T09:32:31.905Z,8.38
2022-10-14T09:34:59.614Z,8.82
2022-10-14T09:37:31.966Z,7.50
2022-10-14T09:40:32.155Z,8.13
2022-10-14T09:43:12.066Z,8.05
2022-10-14T09:45:47.726Z,7.65
2022-10-14T09:48:33.602Z,9.23
2022-10-14T09:51:03.249Z,8.65
2022-10-14T09:53:31.640Z,9.32
2022-10-14T09:56:01.142Z,8.48
2022-10-14T09:58:57.358Z,8.35
2022-10-14T10:01:25.185Z,8.27
2022-10-14T10:03:53.451Z,8.85
2022-10-14T10:06:26.424Z,8.23
2022-10-14T10:08:52.731Z,8.48
2022-10-14T10:11:39.418Z,9.23
2022-10-14T10:14:25.239Z,9.13
2022-10-14T10:17:13.986Z,8.65
2022-10-14T10:19:46.377Z,8.82
2022-10-14T10:22:24.250Z,8.40
2022-10-14T10:25:03.618Z,7.97
2022-10-14T10:27:37.893Z,8.70
2022-10-14T10:30:23.451Z,8.30
2022-10-14T10:35:34.528Z,6.65
2022-10-14T10:38:05.588Z,7.07
2022-10-14T10:41:08.360Z,7.07
2022-10-14T10:43:43.757Z,7.03
2022-10-14T10:46:16.104Z,6.53
2022-10-14T10:48:47.413Z,6.40
2022-10-14T10:51:22.479Z,7.00
2022-10-14T10:54:26.706Z,6.78
2022-10-14T10:56:59.165Z,5.60
2022-10-14T10:59:33.581Z,6.30
2022-10-14T11:02:12.471Z,6.28
2022-10-14T11:05:07.616Z,5.55
2022-10-14T11:08:14.156Z,5.90
2022-10-14T11:11:16.655Z,5.68
2022-10-14T11:13:44.143Z,6.28
2022-10-14T11:16:26.279Z,5.75
2022-10-14T11:19:02.765Z,5.72
2022-10-14T11:21:35.189Z,5.82
2022-10-14T11:24:26.609Z,6.13
2022-10-14T11:27:08.473Z,6.40
2022-10-14T11:29:56.545Z,5.30
2022-10-14T11:32:52.848Z,5.15
2022-10-14T11:38:25.185Z,5.65
2022-10-14T11:41:00.661Z,5.50
2022-10-14T11:43:32.175Z,6.30
2022-10-14T11:46:19.720Z,6.05
2022-10-14T11:48:51.158Z,6.05
2022-10-14T11:51:21.463Z,5.57
2022-10-14T11:54:03.821Z,5.57
2022-10-14T11:56:48.357Z,5.10
2022-10-14T11:59:33.596Z,6.60
2022-10-14T12:02:12.042Z,5.60
2022-10-14T12:04:43.819Z,6.05
2022-10-14T12:07:23.938Z,6.65
2022-10-14T12:10:29.901Z,5.70
2022-10-14T12:12:57.240Z,5.68
2022-10-14T12:15:26.684Z,5.53
2022-10-14T12:18:02.551Z,5.38
2022-10-14T12:21:04.120Z,5.72
2022-10-14T12:23:46.001Z,6.00
2022-10-14T12:26:24.629Z,5.65
2022-10-14T12:28:54.095Z,5.43
2022-10-14T12:31:38.457Z,5.88
2022-10-14T12:34:10.858Z,5.82
2022-10-14T12:36:38.802Z,5.63
2022-10-14T12:39:17.191Z,5.70
2022-10-14T12:42:00.202Z,5.47
2022-10-14T12:44:58.368Z,5.60
2022-10-14T12:47:34.732Z,4.68
2022-10-14T12:50:05.173Z,5.07
2022-10-14T12:52:39.453Z,4.72
2022-10-14T12:55:16.814Z,5.30
2022-10-14T12:57:43.674Z,6.03
2022-10-14T13:00:22.491Z,4.95
2022-10-14T13:02:56.958Z,4.82
2022-10-14T13:05:26.279Z,4.68
2022-10-14T13:08:20.190Z,4.95
2022-10-14T13:10:58.821Z,4.75
2022-10-14T13:13:49.179Z,4.55
2022-10-14T13:16:21.562Z,4.70
2022-10-14T13:18:52.542Z,4.70
2022-10-14T13:21:34.605Z,5.47
2022-10-14T13:24:22.934Z,5.90
2022-10-14T13:26:49.318Z,4.82
2022-10-14T13:29:50.165Z,4.50
2022-10-14T13:32:41.414Z,4.40
2022-10-14T13:35:29.140Z,4.25
2022-10-14T13:38:06.326Z,3.97
2022-10-14T13:40:42.995Z,4.07
2022-10-14T13:43:15.376Z,4.13
2022-10-14T13:45:48.802Z,3.85
2022-10-14T13:48:28.104Z,4.10
2022-10-14T13:51:23.923Z,4.20
2022-10-14T13:53:57.041Z,3.75
2022-10-14T13:56:29.846Z,3.88
2022-10-14T13:58:57.848Z,3.80
2022-10-14T14:01:39.193Z,3.80
2022-10-14T14:04:06.042Z,4.25
2022-10-14T14:06:40.051Z,3.50
2022-10-14T14:09:26.035Z,3.00
2022-10-14T14:11:59.796Z,2.90
2022-10-14T14:14:37.833Z,3.17
2022-10-14T14:17:07.782Z,3.58
2022-10-14T14:19:37.134Z,3.40
2022-10-14T14:22:28.927Z,3.33
2022-10-14T14:25:33.339Z,3.10
2022-10-14T14:28:03.326Z,2.88
2022-10-14T14:30:38.613Z,2.83
2022-10-14T14:33:11.753Z,5.80
2022-10-14T14:35:38.434Z,6.75
2022-10-14T14:38:04.832Z,4.65
2022-10-14T14:40:31.798Z,5.60
2022-10-14T14:43:03.673Z,3.10
2022-10-14T14:45:34.911Z,2.00
2022-10-14T14:48:07.580Z,2.45
2022-10-14T14:50:40.055Z,2.45
2022-10-14T14:53:23.778Z,1.95
2022-10-14T14:55:53.422Z,2.35
2022-10-14T14:58:43.995Z,1.90
2022-10-14T15:01:20.329Z,3.13
2022-10-14T15:04:12.396Z,2.60
2022-10-14T15:06:50.716Z,1.80
2022-10-14T15:09:24.228Z,2.58
2022-10-14T15:11:54.704Z,1.90
2022-10-14T15:14:44.003Z,1.88
2022-10-14T15:17:27.548Z,1.83
2022-10-14T15:19:54.258Z,1.73
2022-10-14T15:22:28.846Z,1.60
2022-10-14T15:25:09.942Z,1.67
2022-10-14T15:27:36.334Z,2.13
2022-10-14T15:30:23.332Z,1.60
2022-10-14T15:32:52.150Z,1.55
2022-10-14T15:35:21.495Z,1.45
2022-10-14T15:37:49.632Z,1.50
2022-10-14T15:40:27.420Z,1.35
2022-10-14T15:42:53.931Z,1.60
2022-10-14T15:45:20.679Z,2.35
2022-10-14T15:47:54.059Z,1.90
2022-10-14T15:50:24.156Z,1.58
2022-10-14T15:52:53.276Z,1.70
2022-10-14T15:55:28.182Z,1.80
2022-10-14T15:57:54.654Z,3.30
2022-10-14T16:00:23.904Z,2.00
2022-10-14T16:02:59.054Z,1.65
2022-10-14T16:07:52.684Z,1.27
2022-10-14T16:10:21.482Z,1.30
2022-10-14T16:12:49.027Z,1.40
2022-10-14T16:15:37.451Z,2.65
2022-10-14T16:18:04.123Z,1.90
2022-10-14T16:20:30.980Z,1.98
2022-10-14T16:22:58.393Z,2.13
2022-10-14T16:25:35.083Z,1.77
2022-10-14T16:28:01.699Z,1.95
2022-10-14T16:30:28.291Z,1.83
2022-10-14T16:32:55.170Z,1.75
2022-10-14T16:35:21.701Z,1.90
2022-10-14T16:37:48.850Z,1.90
2022-10-14T16:40:15.629Z,1.98
2022-10-14T16:42:42.054Z,1.60
2022-10-14T16:45:09.071Z,1.80
2022-10-14T16:47:35.501Z,3.65
2022-10-14T16:50:02.158Z,2.15
2022-10-14T16:52:28.610Z,1.90
2022-10-14T16:54:55.196Z,2.10
2022-10-14T16:57:21.660Z,2.25
2022-10-14T16:59:49.289Z,2.17
2022-10-14T17:02:16.670Z,2.20
2022-10-14T17:04:46.399Z,2.03
2022-10-14T17:07:14.701Z,1.92
2022-10-14T17:09:41.320Z,2.58
2022-10-14T17:12:12.879Z,2.40
2022-10-14T17:14:41.069Z,2.58
2022-10-14T17:17:07.745Z,2.50
2022-10-14T17:19:34.271Z,2.15
2022-10-14T17:22:01.990Z,2.20
2022-10-14T17:24:29.492Z,2.65
2022-10-14T17:26:56.405Z,2.30
2022-10-14T17:29:22.881Z,2.58
2022-10-14T17:31:49.639Z,2.55
2022-10-14T17:34:16.077Z,2.80
2022-10-14T17:36:43.941Z,2.90
2022-10-14T17:39:21.463Z,2.97
2022-10-14T17:41:53.986Z,3.03
2022-10-14T17:44:20.625Z,2.70
2022-10-14T17:46:47.078Z,3.10
2022-10-14T17:49:15.051Z,3.42
2022-10-14T17:51:41.825Z,3.40
2022-10-14T17:54:11.297Z,3.40
2022-10-14T17:56:38.723Z,3.38
2022-10-14T17:59:07.519Z,3.50
2022-10-14T18:02:01.032Z,3.95
2022-10-14T18:06:53.998Z,4.60
2022-10-14T18:09:20.429Z,5.13
2022-10-14T18:12:07.827Z,4.60
2022-10-14T18:14:34.949Z,4.40
2022-10-14T18:17:01.790Z,5.47
2022-10-14T18:19:28.307Z,4.10
2022-10-14T18:21:54.924Z,4.32
2022-10-14T18:24:21.375Z,4.25
2022-10-14T18:26:51.467Z,4.25
2022-10-14T18:29:17.879Z,4.10
2022-10-14T18:31:44.453Z,3.70
2022-10-14T18:34:11.714Z,4.50
2022-10-14T18:36:38.570Z,4.18
2022-10-14T18:39:08.041Z,3.92
2022-10-14T18:41:36.881Z,3.38
2022-10-14T18:44:05.186Z,3.28
2022-10-14T18:46:34.035Z,2.95
2022-10-14T18:49:01.937Z,3.90
2022-10-14T18:51:40.158Z,3.53
2022-10-14T18:54:15.069Z,3.88
2022-10-14T18:56:42.105Z,3.72
2022-10-14T18:59:19.313Z,3.45
2022-10-14T19:01:47.516Z,3.42
2022-10-14T19:04:15.528Z,3.45
2022-10-14T19:06:45.765Z,2.92
2022-10-14T19:09:13.590Z,3.30
2022-10-14T19:11:41.192Z,3.28
2022-10-14T19:14:08.110Z,3.28
2022-10-14T19:16:36.621Z,3.03
2022-10-14T19:19:18.192Z,3.15
2022-10-14T19:21:47.466Z,3.50
2022-10-14T19:24:15.479Z,3.50
2022-10-14T19:26:44.076Z,3.40
2022-10-14T19:29:12.998Z,3.50
2022-10-14T19:31:40.773Z,3.53
2022-10-14T19:34:10.179Z,3.35
2022-10-14T19:36:39.293Z,3.67
2022-10-14T19:39:08.124Z,3.35
2022-10-14T19:41:42.881Z,3.08
2022-10-14T19:44:10.685Z,2.97
2022-10-14T19:46:37.508Z,3.08
2022-10-14T19:49:04.652Z,3.30
2022-10-14T19:51:33.030Z,3.80
2022-10-14T19:54:00.273Z,3.65
2022-10-14T19:56:27.169Z,3.83
2022-10-14T19:58:55.877Z,3.85
2022-10-14T20:01:25.148Z,3.63
2022-10-14T20:03:52.396Z,3.53
2022-10-14T20:06:20.335Z,3.90
2022-10-14T20:08:46.897Z,3.60
2022-10-14T20:11:17.855Z,4.30
2022-10-14T20:13:45.106Z,4.53
2022-10-14T20:16:12.493Z,4.30
2022-10-14T20:18:39.383Z,4.40
2022-10-14T20:21:07.015Z,4.35
2022-10-14T20:23:40.549Z,4.22
2022-10-14T20:26:19.790Z,3.58
2022-10-14T20:28:47.335Z,3.33
2022-10-14T20:31:16.457Z,4.00
2022-10-14T20:33:43.467Z,4.00
2022-10-14T20:36:15.880Z,4.10
2022-10-14T20:38:43.447Z,3.60
2022-10-14T20:41:16.180Z,3.75
2022-10-14T20:43:44.171Z,3.33
2022-10-14T20:46:11.091Z,3.50
2022-10-14T20:48:37.885Z,3.40
2022-10-14T20:51:05.687Z,3.60
2022-10-14T20:53:32.760Z,2.92
2022-10-14T20:56:08.279Z,2.80
2022-10-14T20:58:35.545Z,2.83
2022-10-14T21:01:10.789Z,2.70
2022-10-14T21:03:37.929Z,2.78
2022-10-14T21:06:06.102Z,2.72
2022-10-14T21:08:33.211Z,2.60
2022-10-14T21:11:01.046Z,3.03
2022-10-14T21:13:29.652Z,3.05
2022-10-14T21:15:56.395Z,3.90
2022-10-14T21:18:23.938Z,3.95
2022-10-14T21:23:22.370Z,3.30
2022-10-14T21:25:56.730Z,2.83
2022-10-14T21:28:23.747Z,2.83
2022-10-14T21:30:50.426Z,2.97
2022-10-14T21:33:16.975Z,2.83
2022-10-14T21:35:43.518Z,3.10
2022-10-14T21:38:09.996Z,3.20
2022-10-14T21:40:36.746Z,3.05
2022-10-14T21:43:03.234Z,2.75
2022-10-14T21:45:29.789Z,3.53
2022-10-14T21:47:56.250Z,3.25
2022-10-14T21:50:22.731Z,3.42
2022-10-14T21:52:49.160Z,3.60
2022-10-14T21:55:15.522Z,3.42
2022-10-14T21:57:42.070Z,3.20
2022-10-14T22:00:10.577Z,3.55
2022-10-14T22:02:37.099Z,3.50
2022-10-14T22:05:03.851Z,3.10
2022-10-14T22:07:31.124Z,3.95
2022-10-14T22:09:57.552Z,3.13
2022-10-14T22:12:24.431Z,3.70
2022-10-14T22:14:50.904Z,4.10
2022-10-14T22:17:17.360Z,3.85
2022-10-14T22:19:43.824Z,3.92
2022-10-14T22:22:11.408Z,4.03
2022-10-14T22:24:37.869Z,4.28
2022-10-14T22:27:04.429Z,3.65
2022-10-14T22:29:30.869Z,3.95
2022-10-14T22:31:57.347Z,3.70
2022-10-14T22:34:24.019Z,4.15
2022-10-14T22:36:50.442Z,3.72
2022-10-14T22:39:17.173Z,3.35
2022-10-14T22:41:43.686Z,3.63
2022-10-14T22:44:10.707Z,3.20
2022-10-14T22:46:39.034Z,3.75
2022-10-14T22:49:06.121Z,3.50
2022-10-14T22:51:36.130Z,3.38
2022-10-14T22:54:02.810Z,3.42
2022-10-14T22:56:30.843Z,3.17
2022-10-14T22:59:06.485Z,4.03
2022-10-14T23:01:34.125Z,3.58
2022-10-14T23:04:01.511Z,4.40
2022-10-14T23:06:29.121Z,3.97
2022-10-14T23:08:56.250Z,4.00
2022-10-14T23:11:24.802Z,3.83
2022-10-14T23:13:51.802Z,3.50
2022-10-14T23:16:20.766Z,3.75
2022-10-14T23:18:48.221Z,4.40
2022-10-14T23:21:25.820Z,3.65
2022-10-14T23:23:53.661Z,4.13
2022-10-14T23:26:22.755Z,3.67
2022-10-14T23:28:51.452Z,3.97
2022-10-14T23:31:20.710Z,3.70
2022-10-14T23:33:49.044Z,4.78
2022-10-14T23:36:16.258Z,3.70
2022-10-14T23:38:43.424Z,3.83
2022-10-14T23:41:11.570Z,4.15
2022-10-14T23:43:38.503Z,4.22
2022-10-14T23:46:05.792Z,4.30
2022-10-14T23:48:32.885Z,3.90
2022-10-14T23:50:59.930Z,4.80
2022-10-14T23:53:27.208Z,4.20
2022-10-14T23:55:55.037Z,4.25
2022-10-14T23:58:22.999Z,4.03
